createdAt,value
2023-04-18T00:00:28.708Z,8.53
2023-04-18T00:05:30.580Z,8.51
2023-04-18T00:10:33.199Z,8.47
2023-04-18T00:15:35.546Z,8.46
2023-04-18T00:20:39.015Z,8.46
2023-04-18T00:25:41.142Z,8.45
2023-04-18T00:30:42.658Z,8.44
2023-04-18T00:35:44.325Z,8.44
2023-04-18T00:40:45.864Z,8.45
2023-04-18T00:45:47.435Z,8.45
2023-04-18T00:50:49.031Z,8.44
2023-04-18T00:55:50.552Z,8.44
2023-04-18T01:00:52.357Z,8.45
2023-04-18T01:05:55.613Z,8.46
2023-04-18T01:10:57.120Z,8.45
2023-04-18T01:15:59.062Z,8.46
2023-04-18T01:21:00.925Z,8.45
2023-04-18T01:26:02.384Z,8.44
2023-04-18T01:31:03.933Z,8.43
2023-04-18T01:36:05.730Z,8.43
2023-04-18T01:41:07.248Z,8.40
2023-04-18T01:46:08.872Z,8.39
2023-04-18T01:51:10.439Z,8.36
2023-04-18T01:56:11.962Z,8.35
2023-04-18T02:01:13.736Z,8.35
2023-04-18T02:06:15.238Z,8.33
2023-04-18T02:11:16.746Z,8.31
2023-04-18T02:16:18.224Z,8.31
2023-04-18T02:21:19.770Z,8.32
2023-04-18T02:26:21.282Z,8.33
2023-04-18T02:31:22.822Z,8.33
2023-04-18T02:36:28.149Z,8.33
2023-04-18T02:41:29.632Z,8.35
2023-04-18T02:46:31.245Z,8.34
2023-04-18T02:51:32.924Z,8.35
2023-04-18T02:56:39.902Z,8.32
2023-04-18T03:01:41.613Z,8.31
2023-04-18T03:06:43.264Z,8.31
2023-04-18T03:11:44.900Z,8.31
2023-04-18T03:16:46.509Z,8.34
2023-04-18T03:21:48.044Z,8.34
2023-04-18T03:26:49.543Z,8.33
2023-04-18T03:31:51.050Z,8.34
2023-04-18T03:36:52.544Z,8.33
2023-04-18T03:41:54.247Z,8.34
2023-04-18T03:46:56.057Z,8.36
2023-04-18T03:51:57.550Z,8.34
2023-04-18T03:56:59.681Z,8.32
2023-04-18T04:02:01.310Z,8.34
2023-04-18T04:07:03.250Z,8.36
2023-04-18T04:12:05.560Z,8.39
2023-04-18T04:17:07.366Z,8.39
2023-04-18T04:22:09.172Z,8.41
2023-04-18T04:27:12.620Z,8.42
2023-04-18T04:32:14.933Z,8.40
2023-04-18T04:37:18.807Z,8.43
2023-04-18T04:42:20.312Z,8.45
2023-04-18T04:47:21.900Z,8.49
2023-04-18T04:52:23.545Z,8.53
2023-04-18T04:57:25.092Z,8.59
2023-04-18T05:02:26.682Z,8.67
2023-04-18T05:07:28.465Z,8.77
2023-04-18T05:12:29.955Z,8.85
2023-04-18T05:17:31.467Z,8.94
2023-04-18T05:22:33.007Z,9.01
2023-04-18T05:27:34.544Z,9.05
2023-04-18T05:32:36.045Z,9.11
2023-04-18T05:37:37.652Z,9.15
2023-04-18T05:42:43.558Z,9.22
2023-04-18T05:47:45.121Z,9.25
2023-04-18T05:52:46.688Z,9.32
2023-04-18T05:57:48.161Z,9.37
2023-04-18T06:02:50.850Z,9.42
2023-04-18T06:07:52.612Z,9.45
2023-04-18T06:12:54.098Z,9.53
2023-04-18T06:17:55.625Z,9.55
2023-04-18T06:22:57.177Z,9.56
2023-04-18T06:27:58.664Z,9.61
2023-04-18T06:33:00.442Z,9.66
2023-04-18T06:38:02.430Z,9.70
2023-04-18T06:43:04.122Z,9.79
2023-04-18T06:48:06.374Z,9.80
2023-04-18T06:53:07.920Z,9.87
2023-04-18T06:58:10.232Z,9.88
2023-04-18T07:03:13.697Z,9.89
2023-04-18T07:08:15.667Z,9.91
2023-04-18T07:13:17.222Z,9.88
2023-04-18T07:18:30.199Z,9.87
2023-04-18T07:23:36.631Z,9.77
2023-04-18T07:28:38.131Z,9.74
2023-04-18T07:33:39.712Z,9.78
2023-04-18T07:38:41.572Z,9.83
2023-04-18T07:43:44.964Z,9.97
2023-04-18T07:48:46.544Z,10.03
2023-04-18T07:53:48.072Z,10.13
2023-04-18T07:58:49.560Z,10.16
2023-04-18T08:03:53.291Z,10.19
2023-04-18T08:08:55.032Z,10.25
2023-04-18T08:13:56.492Z,10.35
2023-04-18T08:18:57.976Z,10.51
2023-04-18T08:23:59.641Z,10.74
2023-04-18T08:29:01.173Z,11.04
2023-04-18T08:34:04.985Z,11.37
2023-04-18T08:39:07.881Z,11.79
2023-04-18T08:44:09.487Z,12.00
2023-04-18T08:49:12.025Z,12.14
2023-04-18T08:54:15.178Z,12.41
2023-04-18T08:59:18.436Z,12.50
2023-04-18T09:04:44.885Z,12.60
2023-04-18T09:09:51.932Z,12.75
2023-04-18T09:14:57.899Z,12.82
2023-04-18T09:20:01.144Z,12.86
2023-04-18T09:25:02.605Z,12.99
2023-04-18T09:30:05.590Z,13.20
2023-04-18T09:35:08.292Z,13.44
2023-04-18T09:40:19.623Z,13.70
2023-04-18T09:45:22.554Z,13.67
2023-04-18T09:50:24.162Z,13.86
2023-04-18T09:55:26.116Z,14.06
2023-04-18T10:00:32.112Z,14.08
2023-04-18T10:05:36.416Z,14.14
2023-04-18T10:10:39.062Z,14.28
2023-04-18T10:15:43.623Z,14.42
2023-04-18T10:20:47.036Z,14.59
2023-04-18T10:25:49.642Z,14.62
2023-04-18T10:30:53.376Z,14.72
2023-04-18T10:36:02.829Z,14.74
2023-04-18T10:41:22.348Z,14.70
2023-04-18T10:46:31.724Z,14.72
2023-04-18T10:51:33.700Z,14.91
2023-04-18T10:56:35.565Z,15.17
2023-04-18T11:01:38.137Z,15.17
2023-04-18T11:06:50.089Z,15.06
2023-04-18T11:12:08.419Z,15.10
2023-04-18T11:17:22.231Z,15.18
2023-04-18T11:22:23.815Z,15.32
2023-04-18T11:27:28.389Z,15.61
2023-04-18T11:32:30.065Z,15.72
2023-04-18T11:37:32.550Z,15.93
2023-04-18T11:42:35.159Z,16.03
2023-04-18T11:47:36.657Z,16.17
2023-04-18T11:52:41.187Z,16.37
2023-04-18T11:57:49.342Z,16.49
2023-04-18T12:02:51.400Z,16.35
2023-04-18T12:07:53.447Z,16.15
2023-04-18T12:12:58.709Z,16.00
2023-04-18T12:18:02.490Z,15.94
2023-04-18T12:23:04.193Z,15.82
2023-04-18T12:28:15.840Z,15.78
2023-04-18T12:33:17.336Z,15.85
2023-04-18T12:38:23.483Z,15.94
2023-04-18T12:43:25.750Z,16.11
2023-04-18T12:48:27.332Z,16.23
2023-04-18T12:53:28.896Z,16.20
2023-04-18T12:58:30.933Z,16.22
2023-04-18T13:03:33.862Z,16.23
2023-04-18T13:08:37.418Z,16.20
2023-04-18T13:13:38.974Z,16.22
2023-04-18T13:18:40.870Z,16.25
2023-04-18T13:23:42.376Z,16.23
2023-04-18T13:28:43.949Z,16.27
2023-04-18T13:33:45.424Z,16.27
2023-04-18T13:38:46.960Z,16.27
2023-04-18T13:43:48.473Z,16.44
2023-04-18T13:48:50.188Z,16.46
2023-04-18T13:53:52.240Z,16.45
2023-04-18T13:58:54.202Z,16.37
2023-04-18T14:03:55.940Z,16.40
2023-04-18T14:08:59.212Z,16.31
2023-04-18T14:14:02.099Z,16.26
2023-04-18T14:19:03.640Z,16.05
2023-04-18T14:24:06.225Z,16.01
2023-04-18T14:29:07.781Z,15.93
2023-04-18T14:34:09.853Z,15.96
2023-04-18T14:39:11.842Z,15.91
2023-04-18T14:44:13.678Z,15.81
2023-04-18T14:49:15.345Z,15.72
2023-04-18T14:54:17.096Z,15.64
2023-04-18T14:59:18.765Z,15.65
2023-04-18T15:04:21.244Z,15.59
2023-04-18T15:09:23.038Z,15.51
2023-04-18T15:14:24.765Z,15.46
2023-04-18T15:19:28.006Z,15.39
2023-04-18T15:24:29.689Z,15.33
2023-04-18T15:29:31.175Z,15.19
2023-04-18T15:34:33.226Z,15.08
2023-04-18T15:39:34.832Z,14.98
2023-04-18T15:44:36.394Z,14.94
2023-04-18T15:49:37.986Z,14.90
2023-04-18T15:54:42.917Z,14.84
2023-04-18T15:59:44.396Z,14.78
2023-04-18T16:04:46.460Z,14.72
2023-04-18T16:09:48.213Z,14.63
2023-04-18T16:14:49.705Z,14.56
2023-04-18T16:19:51.385Z,14.50
2023-04-18T16:24:52.952Z,14.44
2023-04-18T16:29:54.503Z,14.38
2023-04-18T16:34:56.034Z,14.30
2023-04-18T16:39:57.688Z,14.24
2023-04-18T16:45:01.784Z,14.18
2023-04-18T16:50:03.564Z,14.13
2023-04-18T16:55:06.704Z,14.08
2023-04-18T17:00:12.529Z,14.03
2023-04-18T17:05:14.103Z,13.97
2023-04-18T17:10:15.934Z,13.94
2023-04-18T17:15:19.712Z,13.88
2023-04-18T17:20:21.257Z,13.80
2023-04-18T17:25:22.758Z,13.70
2023-04-18T17:30:24.259Z,13.63
2023-04-18T17:35:25.930Z,13.54
2023-04-18T17:40:28.211Z,13.45
2023-04-18T17:45:29.982Z,13.35
2023-04-18T17:50:31.535Z,13.25
2023-04-18T17:55:33.076Z,13.17
2023-04-18T18:00:35.905Z,13.08
2023-04-18T18:05:37.455Z,13.00
2023-04-18T18:10:39.302Z,12.95
2023-04-18T18:15:40.796Z,12.88
2023-04-18T18:20:43.518Z,12.83
2023-04-18T18:25:45.077Z,12.78
2023-04-18T18:30:46.577Z,12.73
2023-04-18T18:35:48.085Z,12.68
2023-04-18T18:40:49.603Z,12.62
2023-04-18T18:45:51.220Z,12.58
2023-04-18T18:50:53.805Z,12.51
2023-04-18T18:55:55.521Z,12.45
2023-04-18T19:00:57.213Z,12.39
2023-04-18T19:05:58.789Z,12.33
2023-04-18T19:11:00.464Z,12.29
2023-04-18T19:16:02.044Z,12.24
2023-04-18T19:21:04.421Z,12.18
2023-04-18T19:26:05.946Z,12.14
2023-04-18T19:31:08.282Z,12.10
2023-04-18T19:36:09.883Z,12.03
2023-04-18T19:41:11.440Z,11.99
2023-04-18T19:46:13.021Z,11.95
2023-04-18T19:51:14.672Z,11.89
2023-04-18T19:56:16.742Z,11.85
2023-04-18T20:01:20.070Z,11.83
2023-04-18T20:06:21.944Z,11.80
2023-04-18T20:11:23.503Z,11.78
2023-04-18T20:16:25.082Z,11.76
2023-04-18T20:21:27.340Z,11.73
2023-04-18T20:26:28.872Z,11.74
2023-04-18T20:31:30.427Z,11.69
2023-04-18T20:36:32.002Z,11.71
2023-04-18T20:41:34.772Z,11.68
2023-04-18T20:46:36.471Z,11.68
2023-04-18T20:51:38.376Z,11.70
2023-04-18T20:56:39.951Z,11.67
2023-04-18T21:01:42.058Z,11.63
2023-04-18T21:06:43.797Z,11.58
2023-04-18T21:11:45.531Z,11.58
2023-04-18T21:16:47.032Z,11.56
2023-04-18T21:21:48.560Z,11.51
2023-04-18T21:26:50.264Z,11.51
2023-04-18T21:31:52.466Z,11.49
2023-04-18T21:36:54.240Z,11.47
2023-04-18T21:41:55.707Z,11.43
2023-04-18T21:46:57.398Z,11.39
2023-04-18T21:51:59.035Z,11.36
2023-04-18T21:57:00.498Z,11.33
2023-04-18T22:02:05.564Z,11.31
2023-04-18T22:07:07.294Z,11.27
2023-04-18T22:12:08.845Z,11.24
2023-04-18T22:17:10.393Z,11.20
2023-04-18T22:22:11.931Z,11.15
2023-04-18T22:27:13.550Z,11.10
2023-04-18T22:32:15.026Z,11.06
2023-04-18T22:37:16.570Z,11.03
2023-04-18T22:42:18.112Z,10.97
2023-04-18T22:47:19.650Z,10.89
2023-04-18T22:52:24.764Z,10.83
2023-04-18T22:57:26.532Z,10.73
2023-04-18T23:02:28.257Z,10.58
2023-04-18T23:07:29.847Z,10.47
2023-04-18T23:12:31.651Z,10.37
2023-04-18T23:17:34.935Z,10.31
2023-04-18T23:22:38.527Z,10.27
2023-04-18T23:27:40.283Z,10.20
2023-04-18T23:32:42.035Z,10.13
2023-04-18T23:37:43.606Z,10.07
2023-04-18T23:42:45.169Z,10.01
2023-04-18T23:47:46.889Z,9.96
2023-04-18T23:52:48.491Z,9.91
2023-04-18T23:57:50.004Z,9.86
